createdAt,value
2016-11-22T00:00:47.456Z,22.18
2016-11-22T00:01:56.780Z,22.17
2016-11-22T00:03:06.423Z,22.2
2016-11-22T00:04:15.136Z,22.17
2016-11-22T00:05:24.452Z,22.22
2016-11-22T00:06:33.788Z,22.18
2016-11-22T00:07:42.816Z,22.21
2016-11-22T00:08:51.868Z,22.22
2016-11-22T00:10:00.571Z,22.22
2016-11-22T00:11:09.885Z,22.21
2016-11-22T00:12:18.888Z,22.21
2016-11-22T00:13:27.879Z,22.22
2016-11-22T00:14:36.891Z,22.22
2016-11-22T00:15:45.607Z,22.17
2016-11-22T00:16:54.618Z,22.2
2016-11-22T00:18:03.624Z,22.18
2016-11-22T00:19:12.717Z,22.2
2016-11-22T00:20:22.032Z,22.12
2016-11-22T00:21:31.702Z,22.24
2016-11-22T00:22:40.715Z,22.18
2016-11-22T00:23:49.758Z,22.25
2016-11-22T00:24:59.085Z,22.18
2016-11-22T00:26:07.781Z,22.22
2016-11-22T00:27:17.110Z,22.1
2016-11-22T00:28:26.445Z,22.14
2016-11-22T00:29:35.460Z,22.25
2016-11-22T00:30:44.777Z,22.15
2016-11-22T00:31:53.787Z,22.12
2016-11-22T00:33:02.792Z,22.14
2016-11-22T00:34:11.826Z,22.2
2016-11-22T00:35:20.836Z,22.17
2016-11-22T00:36:29.568Z,22.14
2016-11-22T00:37:39.182Z,22.17
2016-11-22T00:38:47.866Z,22.03
2016-11-22T00:39:56.891Z,22.1
2016-11-22T00:41:05.904Z,22.06
2016-11-22T00:42:14.908Z,22.05
2016-11-22T00:43:23.924Z,22.12
2016-11-22T00:44:32.943Z,22.06
2016-11-22T00:45:42.275Z,22.02
2016-11-22T00:46:51.007Z,22.09
2016-11-22T00:47:59.707Z,22.09
2016-11-22T00:49:09.015Z,22.03
2016-11-22T00:50:17.725Z,22.07
2016-11-22T00:51:26.435Z,22.1
2016-11-22T00:52:35.484Z,22.06
2016-11-22T00:53:44.531Z,22.02
2016-11-22T00:54:54.165Z,22.12
2016-11-22T00:56:03.795Z,21.99
2016-11-22T00:57:12.868Z,22.03
2016-11-22T00:58:22.215Z,22.05
2016-11-22T00:59:30.929Z,22.17
2016-11-22T01:00:40.021Z,22.06
2016-11-22T01:01:48.787Z,22.1
2016-11-22T01:02:57.518Z,22.07
2016-11-22T01:04:06.518Z,22.09
2016-11-22T01:05:15.554Z,22.02
2016-11-22T01:06:24.902Z,22.12
2016-11-22T01:07:34.256Z,22.12
2016-11-22T01:08:42.977Z,22.12
2016-11-22T01:09:51.995Z,21.96
2016-11-22T01:11:00.748Z,22.12
2016-11-22T01:12:09.821Z,22
2016-11-22T01:13:19.150Z,22.07
2016-11-22T01:14:28.477Z,22.09
2016-11-22T01:15:37.474Z,22.09
2016-11-22T01:16:46.829Z,21.98
2016-11-22T01:17:55.889Z,22.03
2016-11-22T01:19:04.897Z,22.1
2016-11-22T01:20:13.625Z,21.99
2016-11-22T01:21:23.573Z,22.07
2016-11-22T01:22:32.930Z,22.06
2016-11-22T01:23:41.712Z,21.99
2016-11-22T01:24:50.762Z,22.06
2016-11-22T01:25:59.473Z,21.99
2016-11-22T01:27:08.473Z,21.96
2016-11-22T01:28:17.181Z,22.05
2016-11-22T01:29:26.193Z,21.98
2016-11-22T01:30:35.878Z,21.96
2016-11-22T01:31:44.625Z,21.98
2016-11-22T01:32:53.957Z,22
2016-11-22T01:34:02.649Z,21.94
2016-11-22T01:35:11.704Z,21.96
2016-11-22T01:36:20.433Z,22.02
2016-11-22T01:37:29.124Z,21.99
2016-11-22T01:38:37.854Z,21.96
2016-11-22T01:39:46.894Z,22.05
2016-11-22T01:40:55.891Z,21.99
2016-11-22T01:42:05.229Z,22.03
2016-11-22T01:43:14.234Z,22
2016-11-22T01:44:23.570Z,21.96
2016-11-22T01:45:32.909Z,21.99
2016-11-22T01:46:42.901Z,21.99
2016-11-22T01:47:51.950Z,21.98
2016-11-22T01:49:00.958Z,21.96
2016-11-22T01:50:10.277Z,22.06
2016-11-22T01:51:19.285Z,21.99
2016-11-22T01:52:28.343Z,21.96
2016-11-22T01:53:37.092Z,21.98
2016-11-22T01:54:45.842Z,22
2016-11-22T01:55:55.169Z,21.96
2016-11-22T01:57:04.260Z,21.96
2016-11-22T01:58:13.617Z,21.96
2016-11-22T01:59:22.645Z,21.96
2016-11-22T02:00:31.659Z,21.96
2016-11-22T02:01:40.398Z,21.96
2016-11-22T02:02:49.414Z,21.98
2016-11-22T02:03:58.467Z,21.96
2016-11-22T02:05:07.498Z,21.96
2016-11-22T02:06:16.314Z,21.96
2016-11-22T02:07:25.656Z,21.98
2016-11-22T02:08:34.802Z,21.96
2016-11-22T02:09:43.830Z,21.98
2016-11-22T02:10:52.891Z,21.96
2016-11-22T02:12:01.924Z,21.99
2016-11-22T02:13:10.975Z,21.98
2016-11-22T02:14:20.586Z,21.98
2016-11-22T02:15:29.619Z,21.98
2016-11-22T02:16:38.682Z,21.92
2016-11-22T02:17:47.407Z,22.02
2016-11-22T02:18:56.727Z,21.98
2016-11-22T02:20:05.449Z,21.98
2016-11-22T02:21:14.466Z,21.96
2016-11-22T02:22:23.179Z,21.99
2016-11-22T02:23:32.199Z,21.99
2016-11-22T02:24:41.201Z,22.02
2016-11-22T02:25:50.026Z,21.98
2016-11-22T02:26:59.059Z,22.02
2016-11-22T02:28:08.368Z,21.98
2016-11-22T02:29:18.041Z,21.99
2016-11-22T02:30:26.761Z,22.03
2016-11-22T02:31:35.466Z,22.03
2016-11-22T02:32:44.532Z,22.02
2016-11-22T02:33:53.594Z,22.02
2016-11-22T02:35:02.348Z,22.02
2016-11-22T02:36:11.055Z,22.02
2016-11-22T02:37:20.092Z,21.94
2016-11-22T02:38:29.135Z,22.02
2016-11-22T02:39:38.152Z,21.92
2016-11-22T02:40:47.186Z,21.96
2016-11-22T02:41:55.914Z,22.02
2016-11-22T02:43:05.240Z,21.96
2016-11-22T02:44:13.954Z,21.91
2016-11-22T02:45:22.705Z,22.06
2016-11-22T02:46:32.033Z,21.92
2016-11-22T02:47:41.033Z,21.91
2016-11-22T02:48:50.699Z,21.96
2016-11-22T02:50:00.003Z,21.94
2016-11-22T02:51:09.699Z,22.03
2016-11-22T02:52:19.017Z,21.91
2016-11-22T02:53:27.713Z,21.98
2016-11-22T02:54:36.408Z,21.98
2016-11-22T02:55:45.435Z,21.9
2016-11-22T02:56:54.773Z,21.99
2016-11-22T02:58:03.763Z,22
2016-11-22T02:59:12.780Z,21.92
2016-11-22T03:00:21.787Z,22.02
2016-11-22T03:01:30.493Z,21.98
2016-11-22T03:02:39.801Z,21.92
2016-11-22T03:03:48.496Z,21.88
2016-11-22T03:04:57.188Z,21.86
2016-11-22T03:06:06.229Z,21.96
2016-11-22T03:07:15.232Z,21.99
2016-11-22T03:08:24.278Z,21.83
2016-11-22T03:09:33.008Z,22
2016-11-22T03:10:42.047Z,21.92
2016-11-22T03:11:50.805Z,21.9
2016-11-22T03:12:59.502Z,21.91
2016-11-22T03:14:08.843Z,21.99
2016-11-22T03:15:18.179Z,21.92
2016-11-22T03:16:27.237Z,21.94
2016-11-22T03:17:36.567Z,21.96
2016-11-22T03:18:45.891Z,21.9
2016-11-22T03:19:54.582Z,21.82
2016-11-22T03:21:03.295Z,21.94
2016-11-22T03:22:12.312Z,21.94
2016-11-22T03:23:21.950Z,21.88
2016-11-22T03:24:30.967Z,21.98
2016-11-22T03:25:40.590Z,21.9
2016-11-22T03:26:49.898Z,21.98
2016-11-22T03:27:58.599Z,21.96
2016-11-22T03:29:07.643Z,21.88
2016-11-22T03:30:16.379Z,21.94
2016-11-22T03:31:25.419Z,21.86
2016-11-22T03:32:35.038Z,21.92
2016-11-22T03:33:44.358Z,21.9
2016-11-22T03:34:53.700Z,21.96
2016-11-22T03:36:02.439Z,21.88
2016-11-22T03:37:11.148Z,21.86
2016-11-22T03:38:19.841Z,21.94
2016-11-22T03:39:29.183Z,21.94
2016-11-22T03:40:39.125Z,21.84
2016-11-22T03:41:48.496Z,21.88
2016-11-22T03:42:57.507Z,21.96
2016-11-22T03:44:06.510Z,21.9
2016-11-22T03:45:16.126Z,21.99
2016-11-22T03:46:25.135Z,21.88
2016-11-22T03:47:34.138Z,21.94
2016-11-22T03:48:43.455Z,21.9
2016-11-22T03:49:52.751Z,21.83
2016-11-22T03:51:01.750Z,21.99
2016-11-22T03:52:10.442Z,21.99
2016-11-22T03:53:19.439Z,21.91
2016-11-22T03:54:28.450Z,21.92
2016-11-22T03:55:37.755Z,21.9
2016-11-22T03:56:47.091Z,21.92
2016-11-22T03:57:56.098Z,21.92
2016-11-22T03:59:04.795Z,21.88
2016-11-22T04:00:14.102Z,21.96
2016-11-22T04:01:23.410Z,21.98
2016-11-22T04:02:32.710Z,21.88
2016-11-22T04:03:41.705Z,21.84
2016-11-22T04:04:50.404Z,21.86
2016-11-22T04:05:59.431Z,21.94
2016-11-22T04:07:08.492Z,21.91
2016-11-22T04:08:17.505Z,21.79
2016-11-22T04:09:26.829Z,21.9
2016-11-22T04:10:36.197Z,21.92
2016-11-22T04:11:45.575Z,21.98
2016-11-22T04:12:54.606Z,21.92
2016-11-22T04:14:03.939Z,21.9
2016-11-22T04:15:13.252Z,21.91
2016-11-22T04:16:22.550Z,21.84
2016-11-22T04:17:31.559Z,21.88
2016-11-22T04:18:40.597Z,21.83
2016-11-22T04:19:49.610Z,21.92
2016-11-22T04:20:58.679Z,21.98
2016-11-22T04:22:07.683Z,21.9
2016-11-22T04:23:16.705Z,21.9
2016-11-22T04:24:25.457Z,21.82
2016-11-22T04:25:34.474Z,21.92
2016-11-22T04:26:43.862Z,21.86
2016-11-22T04:27:53.491Z,21.88
2016-11-22T04:29:02.293Z,21.86
2016-11-22T04:30:11.692Z,21.91
2016-11-22T04:31:20.400Z,21.88
2016-11-22T04:32:29.402Z,21.86
2016-11-22T04:33:39.043Z,21.92
2016-11-22T04:34:48.159Z,21.77
2016-11-22T04:35:56.863Z,21.75
2016-11-22T04:37:05.906Z,21.72
2016-11-22T04:38:14.964Z,21.84
2016-11-22T04:39:23.685Z,21.8
2016-11-22T04:40:32.990Z,21.84
2016-11-22T04:41:42.025Z,21.84
2016-11-22T04:42:51.037Z,21.82
2016-11-22T04:44:00.038Z,21.9
2016-11-22T04:45:09.096Z,21.9
2016-11-22T04:46:18.728Z,21.75
2016-11-22T04:47:27.470Z,21.9
2016-11-22T04:48:36.216Z,21.83
2016-11-22T04:49:44.925Z,21.82
2016-11-22T04:50:54.557Z,21.77
2016-11-22T04:52:03.395Z,21.88
2016-11-22T04:53:12.091Z,21.79
2016-11-22T04:54:20.818Z,21.72
2016-11-22T04:55:29.919Z,21.88
2016-11-22T04:56:38.929Z,21.86
2016-11-22T04:57:47.692Z,21.79
2016-11-22T04:58:56.476Z,21.84
2016-11-22T05:00:05.201Z,21.88
2016-11-22T05:01:14.523Z,21.83
2016-11-22T05:02:24.145Z,21.72
2016-11-22T05:03:33.497Z,21.72
2016-11-22T05:04:42.576Z,21.84
2016-11-22T05:05:51.311Z,21.84
2016-11-22T05:07:00.676Z,21.86
2016-11-22T05:08:09.745Z,21.84
2016-11-22T05:09:18.799Z,21.9
2016-11-22T05:10:27.575Z,21.79
2016-11-22T05:11:37.190Z,21.84
2016-11-22T05:12:46.248Z,21.75
2016-11-22T05:13:55.011Z,21.83
2016-11-22T05:15:03.739Z,21.84
2016-11-22T05:16:13.382Z,21.75
2016-11-22T05:17:23.017Z,21.9
2016-11-22T05:18:32.669Z,21.84
2016-11-22T05:19:41.691Z,21.91
2016-11-22T05:20:51.016Z,21.77
2016-11-22T05:22:00.359Z,21.8
2016-11-22T05:23:09.429Z,21.83
2016-11-22T05:24:18.208Z,21.8
2016-11-22T05:25:27.222Z,21.84
2016-11-22T05:26:36.227Z,21.84
2016-11-22T05:27:45.251Z,21.86
2016-11-22T05:28:54.260Z,21.83
2016-11-22T05:30:03.603Z,21.88
2016-11-22T05:31:12.650Z,21.77
2016-11-22T05:32:21.367Z,21.75
2016-11-22T05:33:30.392Z,21.8
2016-11-22T05:34:39.433Z,21.75
2016-11-22T05:35:48.486Z,21.84
2016-11-22T05:36:57.183Z,21.86
2016-11-22T05:38:06.185Z,21.9
2016-11-22T05:39:15.190Z,21.92
2016-11-22T05:40:24.198Z,21.91
2016-11-22T05:41:33.217Z,21.96
2016-11-22T05:42:42.249Z,21.99
2016-11-22T05:43:51.277Z,21.98
2016-11-22T05:45:00.343Z,21.98
2016-11-22T05:46:09.408Z,21.98
2016-11-22T05:47:18.727Z,22.05
2016-11-22T05:48:27.439Z,22.15
2016-11-22T05:49:36.774Z,22.14
2016-11-22T05:50:45.782Z,22.17
2016-11-22T05:51:54.800Z,22.27
2016-11-22T05:53:04.117Z,22.25
2016-11-22T05:54:13.127Z,22.31
2016-11-22T05:55:22.762Z,22.35
2016-11-22T05:56:32.710Z,22.45
2016-11-22T05:57:41.716Z,22.45
2016-11-22T05:58:51.031Z,22.54
2016-11-22T06:00:00.054Z,22.52
2016-11-22T06:01:09.105Z,22.58
2016-11-22T06:02:18.450Z,22.6
2016-11-22T06:03:27.471Z,22.64
2016-11-22T06:04:36.475Z,22.61
2016-11-22T06:05:45.771Z,22.58
2016-11-22T06:06:54.544Z,22.61
2016-11-22T06:08:03.541Z,22.73
2016-11-22T06:09:12.534Z,22.72
2016-11-22T06:10:21.842Z,22.76
2016-11-22T06:11:30.911Z,22.82
2016-11-22T06:12:39.933Z,22.86
2016-11-22T06:13:48.945Z,22.85
2016-11-22T06:14:58.016Z,22.97
2016-11-22T06:16:07.059Z,22.97
2016-11-22T06:17:16.072Z,22.97
2016-11-22T06:18:25.071Z,23.05
2016-11-22T06:19:34.083Z,23.05
2016-11-22T06:20:42.794Z,23.04
2016-11-22T06:21:51.788Z,23.16
2016-11-22T06:23:00.485Z,23.17
2016-11-22T06:24:09.184Z,23.17
2016-11-22T06:25:18.578Z,23.2
2016-11-22T06:26:28.214Z,23.17
2016-11-22T06:27:38.140Z,23.2
2016-11-22T06:28:47.765Z,23.32
2016-11-22T06:29:56.469Z,23.28
2016-11-22T06:31:05.199Z,23.31
2016-11-22T06:32:14.199Z,23.39
2016-11-22T06:33:22.951Z,23.38
2016-11-22T06:34:31.997Z,23.35
2016-11-22T06:35:41.727Z,23.42
2016-11-22T06:36:50.437Z,23.51
2016-11-22T06:37:59.470Z,23.47
2016-11-22T06:39:08.211Z,23.43
2016-11-22T06:40:17.825Z,23.47
2016-11-22T06:41:26.836Z,23.42
2016-11-22T06:42:35.868Z,23.51
2016-11-22T06:43:44.567Z,23.54
2016-11-22T06:44:53.269Z,23.51
2016-11-22T06:46:01.974Z,23.48
2016-11-22T06:47:10.985Z,23.65
2016-11-22T06:48:19.991Z,23.7
2016-11-22T06:49:28.999Z,23.69
2016-11-22T06:50:37.721Z,23.7
2016-11-22T06:51:46.475Z,23.66
2016-11-22T06:52:55.171Z,23.8
2016-11-22T06:54:04.492Z,23.63
2016-11-22T06:55:14.426Z,23.65
2016-11-22T06:56:24.338Z,23.5
2016-11-22T06:57:33.048Z,23.35
2016-11-22T06:58:41.757Z,23.36
2016-11-22T06:59:50.758Z,23.27
2016-11-22T07:00:59.770Z,23.31
2016-11-22T07:02:08.771Z,23.22
2016-11-22T07:03:18.081Z,23.19
2016-11-22T07:04:26.782Z,23.19
2016-11-22T07:05:35.479Z,23.2
2016-11-22T07:06:44.175Z,23.25
2016-11-22T07:07:53.476Z,23.23
2016-11-22T07:09:03.087Z,23.25
2016-11-22T07:10:12.409Z,23.17
2016-11-22T07:11:21.718Z,23.17
2016-11-22T07:12:30.771Z,23.17
2016-11-22T07:13:39.779Z,23.15
2016-11-22T07:14:48.796Z,23.17
2016-11-22T07:15:57.821Z,23.19
2016-11-22T07:17:06.845Z,23.09
2016-11-22T07:18:16.154Z,23.02
2016-11-22T07:19:25.182Z,23.01
2016-11-22T07:20:33.867Z,23.07
2016-11-22T07:21:43.176Z,23.07
2016-11-22T07:22:52.499Z,23.05
2016-11-22T07:24:01.809Z,23.05
2016-11-22T07:25:10.524Z,23.09
2016-11-22T07:26:19.226Z,23.07
2016-11-22T07:27:27.942Z,23.04
2016-11-22T07:28:36.961Z,23.01
2016-11-22T07:29:46.286Z,23.04
2016-11-22T07:30:54.995Z,23.09
2016-11-22T07:32:03.735Z,23.05
2016-11-22T07:33:12.455Z,23.02
2016-11-22T07:34:21.500Z,23.01
2016-11-22T07:35:30.218Z,23.01
2016-11-22T07:36:39.573Z,22.97
2016-11-22T07:37:48.592Z,22.95
2016-11-22T07:38:58.242Z,22.98
2016-11-22T07:40:07.247Z,22.95
2016-11-22T07:41:16.559Z,22.97
2016-11-22T07:42:25.897Z,22.97
2016-11-22T07:43:35.207Z,22.92
2016-11-22T07:44:43.919Z,22.88
2016-11-22T07:45:52.640Z,22.95
2016-11-22T07:47:01.955Z,22.94
2016-11-22T07:48:11.289Z,22.94
2016-11-22T07:49:20.605Z,22.88
2016-11-22T07:50:29.911Z,22.88
2016-11-22T07:51:39.231Z,22.95
2016-11-22T07:52:48.861Z,22.83
2016-11-22T07:53:57.871Z,22.85
2016-11-22T07:55:07.182Z,22.9
2016-11-22T07:56:16.208Z,22.86
2016-11-22T07:57:25.239Z,22.86
2016-11-22T07:58:34.259Z,22.9
2016-11-22T07:59:43.580Z,22.85
2016-11-22T08:00:52.909Z,22.85
2016-11-22T08:02:01.940Z,22.79
2016-11-22T08:03:11.018Z,22.8
2016-11-22T08:04:20.059Z,22.77
2016-11-22T08:05:29.096Z,22.79
2016-11-22T08:06:38.441Z,22.79
2016-11-22T08:07:47.751Z,22.85
2016-11-22T08:08:56.786Z,22.85
2016-11-22T08:10:05.793Z,22.77
2016-11-22T08:11:15.110Z,22.8
2016-11-22T08:12:24.771Z,22.75
2016-11-22T08:13:34.089Z,22.72
2016-11-22T08:14:43.114Z,22.72
2016-11-22T08:15:52.152Z,22.77
2016-11-22T08:17:00.853Z,22.75
2016-11-22T08:18:10.178Z,22.72
2016-11-22T08:19:19.177Z,22.75
2016-11-22T08:20:27.885Z,22.79
2016-11-22T08:21:36.904Z,22.64
2016-11-22T08:22:46.223Z,22.65
2016-11-22T08:23:54.940Z,22.72
2016-11-22T08:25:04.273Z,22.65
2016-11-22T08:26:13.011Z,22.75
2016-11-22T08:27:21.720Z,22.67
2016-11-22T08:28:30.746Z,22.7
2016-11-22T08:29:39.788Z,22.7
2016-11-22T08:30:48.492Z,22.73
2016-11-22T08:31:58.114Z,22.72
2016-11-22T08:33:07.135Z,22.7
2016-11-22T08:34:15.912Z,22.7
2016-11-22T08:35:25.528Z,22.7
2016-11-22T08:36:34.557Z,22.7
2016-11-22T08:37:43.305Z,22.7
2016-11-22T08:38:52.634Z,22.61
2016-11-22T08:40:01.703Z,22.6
2016-11-22T08:41:10.746Z,22.65
2016-11-22T08:42:19.837Z,22.65
2016-11-22T08:43:29.466Z,22.72
2016-11-22T08:44:38.537Z,22.61
2016-11-22T08:45:48.188Z,22.62
2016-11-22T08:46:57.494Z,22.55
2016-11-22T08:48:06.515Z,22.65
2016-11-22T08:49:15.551Z,22.6
2016-11-22T08:50:24.866Z,22.6
2016-11-22T08:51:33.911Z,22.58
2016-11-22T08:52:42.951Z,22.61
2016-11-22T08:53:51.659Z,22.61
2016-11-22T08:55:00.431Z,22.57
2016-11-22T08:56:09.166Z,22.57
2016-11-22T08:57:18.506Z,22.6
2016-11-22T08:58:27.256Z,22.58
2016-11-22T08:59:35.972Z,22.68
2016-11-22T09:00:44.999Z,22.58
2016-11-22T09:01:53.699Z,22.58
2016-11-22T09:03:02.734Z,22.67
2016-11-22T09:04:12.059Z,22.55
2016-11-22T09:05:21.112Z,22.68
2016-11-22T09:06:29.831Z,22.58
2016-11-22T09:07:39.164Z,22.58
2016-11-22T09:08:48.483Z,22.65
2016-11-22T09:09:57.488Z,22.58
2016-11-22T09:11:06.503Z,22.55
2016-11-22T09:12:15.208Z,22.55
2016-11-22T09:13:23.969Z,22.64
2016-11-22T09:14:32.985Z,22.52
2016-11-22T09:15:42.689Z,22.61
2016-11-22T09:16:51.691Z,22.55
2016-11-22T09:18:00.741Z,22.61
2016-11-22T09:19:10.067Z,22.55
2016-11-22T09:20:19.072Z,22.65
2016-11-22T09:21:27.798Z,22.57
2016-11-22T09:22:36.820Z,22.57
2016-11-22T09:23:45.540Z,22.6
2016-11-22T09:24:54.255Z,22.49
2016-11-22T09:26:03.257Z,22.62
2016-11-22T09:27:12.568Z,22.61
2016-11-22T09:28:21.276Z,22.51
2016-11-22T09:29:30.294Z,22.58
2016-11-22T09:30:39.311Z,22.55
2016-11-22T09:31:48.351Z,22.55
2016-11-22T09:32:57.668Z,22.61
2016-11-22T09:34:06.382Z,22.65
2016-11-22T09:35:15.401Z,22.54
2016-11-22T09:36:25.337Z,22.49
2016-11-22T09:37:34.121Z,22.52
2016-11-22T09:38:43.167Z,22.61
2016-11-22T09:39:52.488Z,22.52
2016-11-22T09:41:01.515Z,22.6
2016-11-22T09:42:10.526Z,22.55
2016-11-22T09:43:20.167Z,22.55
2016-11-22T09:44:29.783Z,22.58
2016-11-22T09:45:38.819Z,22.54
2016-11-22T09:46:47.857Z,22.61
2016-11-22T09:47:57.243Z,22.58
2016-11-22T09:49:06.905Z,22.62
2016-11-22T09:50:15.928Z,22.61
2016-11-22T09:51:24.658Z,22.57
2016-11-22T09:52:33.387Z,22.51
2016-11-22T09:53:42.112Z,22.58
2016-11-22T09:54:51.164Z,22.58
2016-11-22T09:56:00.824Z,22.58
2016-11-22T09:57:09.870Z,22.54
2016-11-22T09:58:19.181Z,22.62
2016-11-22T09:59:27.933Z,22.64
2016-11-22T10:00:36.708Z,22.61
2016-11-22T10:01:45.727Z,22.58
2016-11-22T10:02:54.776Z,22.57
2016-11-22T10:04:03.475Z,22.55
2016-11-22T10:05:12.794Z,22.61
2016-11-22T10:06:21.816Z,22.52
2016-11-22T10:07:31.126Z,22.57
2016-11-22T10:08:40.130Z,22.55
2016-11-22T10:09:48.852Z,22.57
2016-11-22T10:10:58.196Z,22.62
2016-11-22T10:12:06.898Z,22.57
2016-11-22T10:13:16.538Z,22.6
2016-11-22T10:14:25.251Z,22.55
2016-11-22T10:15:34.595Z,22.55
2016-11-22T10:16:43.664Z,22.58
2016-11-22T10:17:52.377Z,22.58
2016-11-22T10:19:01.702Z,22.64
2016-11-22T10:20:10.410Z,22.57
2016-11-22T10:21:19.743Z,22.61
2016-11-22T10:22:28.806Z,22.6
2016-11-22T10:23:38.130Z,22.49
2016-11-22T10:24:46.824Z,22.52
2016-11-22T10:25:55.522Z,22.51
2016-11-22T10:27:04.842Z,22.52
2016-11-22T10:28:13.859Z,22.52
2016-11-22T10:29:22.608Z,22.57
2016-11-22T10:30:31.625Z,22.51
2016-11-22T10:31:40.642Z,22.55
2016-11-22T10:32:49.658Z,22.55
2016-11-22T10:33:58.719Z,22.49
2016-11-22T10:35:08.051Z,22.43
2016-11-22T10:36:17.365Z,22.43
2016-11-22T10:37:26.086Z,22.46
2016-11-22T10:38:35.436Z,22.36
2016-11-22T10:39:44.448Z,22.43
2016-11-22T10:40:53.483Z,22.37
2016-11-22T10:42:02.511Z,22.43
2016-11-22T10:43:11.217Z,22.37
2016-11-22T10:44:19.933Z,22.35
2016-11-22T10:45:28.977Z,22.43
2016-11-22T10:46:37.693Z,22.39
2016-11-22T10:47:46.739Z,22.45
2016-11-22T10:48:55.781Z,22.47
2016-11-22T10:50:04.807Z,22.4
2016-11-22T10:51:13.848Z,22.46
2016-11-22T10:52:22.889Z,22.43
2016-11-22T10:53:32.299Z,22.47
2016-11-22T10:54:41.008Z,22.47
2016-11-22T10:55:50.409Z,22.37
2016-11-22T10:57:00.045Z,22.4
2016-11-22T10:58:09.362Z,22.36
2016-11-22T10:59:18.377Z,22.46
2016-11-22T11:00:27.392Z,22.45
2016-11-22T11:01:37.068Z,22.4
2016-11-22T11:02:46.450Z,22.43
2016-11-22T11:03:55.881Z,22.47
2016-11-22T11:05:04.596Z,22.55
2016-11-22T11:06:13.929Z,22.61
2016-11-22T11:07:22.640Z,22.6
2016-11-22T11:08:31.334Z,22.39
2016-11-22T11:09:40.645Z,22.57
2016-11-22T11:10:49.957Z,22.46
2016-11-22T11:11:59.270Z,22.55
2016-11-22T11:13:08.574Z,22.61
2016-11-22T11:14:17.276Z,22.61
2016-11-22T11:15:26.608Z,22.54
2016-11-22T11:16:35.925Z,22.52
2016-11-22T11:17:44.627Z,22.61
2016-11-22T11:18:53.643Z,22.54
2016-11-22T11:20:02.645Z,22.49
2016-11-22T11:21:11.970Z,22.57
2016-11-22T11:22:20.671Z,22.52
2016-11-22T11:23:29.678Z,22.55
2016-11-22T11:24:38.401Z,22.54
2016-11-22T11:25:47.469Z,22.57
2016-11-22T11:26:56.559Z,22.51
2016-11-22T11:28:05.912Z,22.54
2016-11-22T11:29:15.232Z,22.58
2016-11-22T11:30:24.556Z,22.54
2016-11-22T11:31:33.563Z,22.54
2016-11-22T11:32:42.901Z,22.62
2016-11-22T11:33:51.623Z,22.58
2016-11-22T11:35:00.676Z,22.6
2016-11-22T11:36:09.701Z,22.57
2016-11-22T11:37:19.326Z,22.55
2016-11-22T11:38:28.068Z,22.58
2016-11-22T11:39:37.085Z,22.52
2016-11-22T11:40:46.092Z,22.55
2016-11-22T11:41:55.405Z,22.61
2016-11-22T11:43:04.189Z,22.58
2016-11-22T11:44:12.913Z,22.58
2016-11-22T11:45:22.552Z,22.62
2016-11-22T11:46:31.874Z,22.57
2016-11-22T11:47:40.965Z,22.57
2016-11-22T11:48:50.041Z,22.51
2016-11-22T11:49:59.355Z,22.52
2016-11-22T11:51:08.377Z,22.54
2016-11-22T11:52:17.105Z,22.46
2016-11-22T11:53:26.126Z,22.55
2016-11-22T11:54:35.795Z,22.58
2016-11-22T11:55:45.158Z,22.58
2016-11-22T11:56:54.203Z,22.58
2016-11-22T11:58:03.279Z,22.52
2016-11-22T11:59:12.024Z,22.57
2016-11-22T12:00:21.042Z,22.62
2016-11-22T12:01:30.079Z,22.61
2016-11-22T12:02:39.724Z,22.57
2016-11-22T12:03:48.435Z,22.58
2016-11-22T12:04:57.760Z,22.58
2016-11-22T12:06:06.774Z,22.57
2016-11-22T12:07:16.087Z,22.61
2016-11-22T12:08:25.098Z,22.61
2016-11-22T12:09:34.425Z,22.62
2016-11-22T12:10:44.066Z,22.54
2016-11-22T12:11:52.806Z,22.54
2016-11-22T12:13:01.528Z,22.61
2016-11-22T12:14:10.853Z,22.61
2016-11-22T12:15:19.550Z,22.65
2016-11-22T12:16:28.587Z,22.58
2016-11-22T12:17:37.909Z,22.51
2016-11-22T12:18:47.285Z,22.55
2016-11-22T12:19:56.043Z,22.58
2016-11-22T12:21:05.063Z,22.62
2016-11-22T12:22:13.788Z,22.58
2016-11-22T12:23:22.794Z,22.61
2016-11-22T12:24:31.816Z,22.52
2016-11-22T12:25:41.450Z,22.65
2016-11-22T12:26:50.189Z,22.55
2016-11-22T12:27:59.569Z,22.54
2016-11-22T12:29:08.596Z,22.54
2016-11-22T12:30:17.624Z,22.58
2016-11-22T12:31:26.342Z,22.6
2016-11-22T12:32:35.063Z,22.57
2016-11-22T12:33:43.782Z,22.58
2016-11-22T12:34:53.108Z,22.58
2016-11-22T12:36:01.821Z,22.65
2016-11-22T12:37:10.532Z,22.57
2016-11-22T12:38:20.143Z,22.57
2016-11-22T12:39:29.500Z,22.57
2016-11-22T12:40:38.530Z,22.51
2016-11-22T12:41:47.253Z,22.61
2016-11-22T12:42:55.964Z,22.54
2016-11-22T12:44:04.669Z,22.57
2016-11-22T12:45:14.331Z,22.52
2016-11-22T12:46:23.385Z,22.61
2016-11-22T12:47:32.100Z,22.54
2016-11-22T12:48:41.172Z,22.54
2016-11-22T12:49:50.470Z,22.61
2016-11-22T12:50:59.861Z,22.57
2016-11-22T12:52:08.891Z,22.58
2016-11-22T12:53:17.599Z,22.54
2016-11-22T12:54:27.618Z,22.57
2016-11-22T12:55:36.654Z,22.57
2016-11-22T12:56:45.671Z,22.54
2016-11-22T12:57:54.718Z,22.54
2016-11-22T12:59:03.743Z,22.54
2016-11-22T13:00:13.073Z,22.52
2016-11-22T13:01:21.783Z,22.52
2016-11-22T13:02:30.828Z,22.55
2016-11-22T13:03:39.857Z,22.58
2016-11-22T13:04:48.896Z,22.54
2016-11-22T13:05:57.933Z,22.62
2016-11-22T13:07:06.972Z,22.47
2016-11-22T13:08:16.026Z,22.58
2016-11-22T13:09:25.354Z,22.57
2016-11-22T13:10:34.077Z,22.52
2016-11-22T13:11:43.078Z,22.61
2016-11-22T13:12:51.818Z,22.58
2016-11-22T13:14:01.129Z,22.55
2016-11-22T13:15:10.470Z,22.57
2016-11-22T13:16:19.503Z,22.49
2016-11-22T13:17:28.276Z,22.55
2016-11-22T13:18:36.997Z,22.58
2016-11-22T13:19:46.631Z,22.57
2016-11-22T13:20:55.661Z,22.52
2016-11-22T13:22:05.356Z,22.58
2016-11-22T13:23:14.099Z,22.47
2016-11-22T13:24:23.133Z,22.37
2016-11-22T13:25:32.474Z,22.52
2016-11-22T13:26:41.224Z,22.43
2016-11-22T13:27:50.252Z,22.42
2016-11-22T13:28:59.285Z,22.45
2016-11-22T13:30:08.599Z,22.4
2016-11-22T13:31:17.946Z,22.51
2016-11-22T13:32:26.966Z,22.43
2016-11-22T13:33:35.678Z,22.39
2016-11-22T13:34:45.001Z,22.43
2016-11-22T13:35:53.748Z,22.45
2016-11-22T13:37:02.471Z,22.46
2016-11-22T13:38:11.787Z,22.45
2016-11-22T13:39:21.101Z,22.45
2016-11-22T13:40:30.110Z,22.4
2016-11-22T13:41:38.836Z,22.46
2016-11-22T13:42:48.143Z,22.43
2016-11-22T13:43:57.502Z,22.45
2016-11-22T13:45:06.847Z,22.46
2016-11-22T13:46:15.868Z,22.46
2016-11-22T13:47:24.581Z,22.45
2016-11-22T13:48:33.945Z,22.47
2016-11-22T13:49:42.678Z,22.45
2016-11-22T13:50:52.022Z,22.47
2016-11-22T13:52:01.380Z,22.45
2016-11-22T13:53:10.704Z,22.46
2016-11-22T13:54:19.702Z,22.4
2016-11-22T13:55:29.067Z,22.4
2016-11-22T13:56:38.090Z,22.42
2016-11-22T13:57:46.812Z,22.36
2016-11-22T13:58:55.846Z,22.36
2016-11-22T14:00:04.850Z,22.36
2016-11-22T14:01:13.573Z,22.36
2016-11-22T14:02:23.206Z,22.4
2016-11-22T14:03:31.917Z,22.39
2016-11-22T14:04:41.240Z,22.4
2016-11-22T14:05:50.616Z,22.36
2016-11-22T14:06:59.320Z,22.35
2016-11-22T14:08:08.353Z,22.37
2016-11-22T14:09:17.359Z,22.31
2016-11-22T14:10:26.379Z,22.36
2016-11-22T14:11:35.381Z,22.35
2016-11-22T14:12:44.079Z,22.31
2016-11-22T14:13:53.714Z,22.33
2016-11-22T14:15:03.048Z,22.35
2016-11-22T14:16:12.380Z,22.28
2016-11-22T14:17:21.120Z,22.27
2016-11-22T14:18:29.826Z,22.28
2016-11-22T14:19:38.550Z,22.28
2016-11-22T14:20:47.553Z,22.24
2016-11-22T14:21:56.564Z,22.33
2016-11-22T14:23:05.882Z,22.24
2016-11-22T14:24:14.888Z,22.24
2016-11-22T14:25:23.604Z,22.36
2016-11-22T14:26:32.338Z,22.25
2016-11-22T14:27:41.361Z,22.25
2016-11-22T14:28:50.402Z,22.22
2016-11-22T14:29:59.745Z,22.3
2016-11-22T14:31:08.474Z,22.25
2016-11-22T14:32:17.811Z,22.22
2016-11-22T14:33:27.136Z,22.3
2016-11-22T14:34:36.169Z,22.22
2016-11-22T14:35:45.178Z,22.22
2016-11-22T14:36:54.213Z,22.2
2016-11-22T14:38:03.260Z,22.27
2016-11-22T14:39:12.271Z,22.17
2016-11-22T14:40:21.310Z,22.2
2016-11-22T14:41:30.089Z,22.22
2016-11-22T14:42:39.415Z,22.22
2016-11-22T14:43:49.032Z,22.2
2016-11-22T14:44:58.064Z,22.22
2016-11-22T14:46:07.102Z,22.2
2016-11-22T14:47:16.428Z,22.22
2016-11-22T14:48:25.480Z,22.21
2016-11-22T14:49:34.525Z,22.21
2016-11-22T14:50:43.835Z,22.21
2016-11-22T14:51:52.551Z,22.22
2016-11-22T14:53:02.485Z,22.17